createdAt,value
2018-07-30T00:01:12.171Z,3.03
2018-07-30T00:03:48.172Z,2.80
2018-07-30T00:06:23.940Z,2.70
2018-07-30T00:08:59.831Z,2.50
2018-07-30T00:11:30.750Z,2.80
2018-07-30T00:14:06.287Z,2.80
2018-07-30T00:16:37.152Z,2.73
2018-07-30T00:19:07.585Z,3.23
2018-07-30T00:21:38.236Z,2.70
2018-07-30T00:24:09.543Z,2.77
2018-07-30T00:26:40.208Z,2.50
2018-07-30T00:29:10.915Z,2.53
2018-07-30T00:31:42.464Z,2.70
2018-07-30T00:34:13.121Z,2.70
2018-07-30T00:36:43.498Z,2.77
2018-07-30T00:39:14.023Z,2.90
2018-07-30T00:41:45.052Z,2.57
2018-07-30T00:44:15.170Z,3.27
2018-07-30T00:46:45.443Z,2.80
2018-07-30T00:49:15.877Z,2.87
2018-07-30T00:51:46.488Z,2.20
2018-07-30T00:54:17.595Z,2.70
2018-07-30T00:56:48.236Z,2.33
2018-07-30T00:59:18.530Z,2.30
2018-07-30T01:01:49.419Z,2.57
2018-07-30T01:04:20.105Z,2.57
2018-07-30T01:06:50.484Z,2.70
2018-07-30T01:09:21.139Z,2.87
2018-07-30T01:11:51.855Z,2.63
2018-07-30T01:14:22.312Z,2.70
2018-07-30T01:16:52.868Z,2.80
2018-07-30T01:19:23.596Z,2.67
2018-07-30T01:21:54.857Z,2.40
2018-07-30T01:24:26.690Z,3.10
2018-07-30T01:26:57.640Z,2.50
2018-07-30T01:29:28.693Z,2.63
2018-07-30T01:31:59.352Z,2.70
2018-07-30T01:34:30.508Z,2.90
2018-07-30T01:37:01.076Z,2.60
2018-07-30T01:39:32.343Z,2.73
2018-07-30T01:42:03.305Z,2.67
2018-07-30T01:44:34.460Z,2.67
2018-07-30T01:47:05.284Z,2.80
2018-07-30T01:49:36.096Z,2.83
2018-07-30T01:52:07.675Z,2.60
2018-07-30T01:54:38.400Z,2.87
2018-07-30T01:57:09.064Z,3.20
2018-07-30T01:59:39.472Z,3.13
2018-07-30T02:02:10.396Z,2.70
2018-07-30T02:04:41.324Z,3.13
2018-07-30T02:07:11.712Z,2.63
2018-07-30T02:09:42.799Z,2.67
2018-07-30T02:12:13.420Z,2.83
2018-07-30T02:14:44.067Z,2.90
2018-07-30T02:17:14.727Z,2.83
2018-07-30T02:19:45.196Z,2.40
2018-07-30T02:22:16.262Z,2.70
2018-07-30T02:24:47.809Z,2.63
2018-07-30T02:27:18.500Z,2.43
2018-07-30T02:29:49.724Z,2.40
2018-07-30T02:32:19.840Z,3.07
2018-07-30T02:34:50.424Z,3.03
2018-07-30T02:37:20.958Z,2.77
2018-07-30T02:39:51.440Z,3.00
2018-07-30T02:42:21.876Z,2.70
2018-07-30T02:44:53.261Z,3.03
2018-07-30T02:47:23.960Z,2.73
2018-07-30T02:49:55.116Z,2.80
2018-07-30T02:52:25.797Z,2.47
2018-07-30T02:54:56.201Z,3.30
2018-07-30T02:57:26.769Z,2.93
2018-07-30T02:59:57.910Z,2.90
2018-07-30T03:02:28.608Z,3.00
2018-07-30T03:04:59.316Z,2.97
2018-07-30T03:07:30.718Z,2.80
2018-07-30T03:10:01.429Z,2.63
2018-07-30T03:12:32.555Z,2.77
2018-07-30T03:15:03.042Z,2.60
2018-07-30T03:17:33.769Z,2.97
2018-07-30T03:20:05.192Z,2.83
2018-07-30T03:22:36.500Z,3.17
2018-07-30T03:25:08.767Z,2.77
2018-07-30T03:27:39.436Z,3.17
2018-07-30T03:30:11.681Z,2.73
2018-07-30T03:32:42.407Z,2.83
2018-07-30T03:35:13.236Z,2.90
2018-07-30T03:37:43.673Z,2.93
2018-07-30T03:40:14.365Z,3.10
2018-07-30T03:42:45.572Z,2.83
2018-07-30T03:45:15.756Z,2.57
2018-07-30T03:47:46.683Z,2.80
2018-07-30T03:50:17.632Z,2.60
2018-07-30T03:52:48.436Z,2.60
2018-07-30T03:55:19.840Z,2.60
2018-07-30T03:57:50.851Z,2.47
2018-07-30T04:00:22.132Z,3.20
2018-07-30T04:02:53.232Z,2.73
2018-07-30T04:05:23.735Z,2.73
2018-07-30T04:07:54.515Z,2.90
2018-07-30T04:10:25.182Z,2.73
2018-07-30T04:12:55.908Z,2.67
2018-07-30T04:15:26.635Z,3.07
2018-07-30T04:17:57.773Z,2.83
2018-07-30T04:20:28.242Z,2.80
2018-07-30T04:22:58.655Z,2.90
2018-07-30T04:25:29.117Z,3.07
2018-07-30T04:28:00.049Z,3.03
2018-07-30T04:30:31.323Z,3.20
2018-07-30T04:33:03.264Z,3.03
2018-07-30T04:35:33.936Z,2.87
2018-07-30T04:38:05.436Z,2.80
2018-07-30T04:40:35.928Z,2.60
2018-07-30T04:43:06.897Z,3.20
2018-07-30T04:45:37.895Z,2.97
2018-07-30T04:48:08.940Z,3.20
2018-07-30T04:50:39.429Z,2.97
2018-07-30T04:53:10.448Z,2.83
2018-07-30T04:55:41.080Z,3.03
2018-07-30T04:58:11.380Z,3.23
2018-07-30T05:00:41.887Z,3.10
2018-07-30T05:03:12.667Z,3.37
2018-07-30T05:05:43.050Z,3.23
2018-07-30T05:08:13.857Z,3.13
2018-07-30T05:10:44.360Z,3.20
2018-07-30T05:13:14.906Z,2.87
2018-07-30T05:15:45.669Z,3.33
2018-07-30T05:18:16.649Z,2.80
2018-07-30T05:20:47.469Z,3.40
2018-07-30T05:23:17.886Z,3.40
2018-07-30T05:25:49.048Z,2.73
2018-07-30T05:28:19.716Z,3.30
2018-07-30T05:30:50.780Z,2.97
2018-07-30T05:33:21.688Z,3.30
2018-07-30T05:35:52.231Z,3.13
2018-07-30T05:38:23.277Z,3.60
2018-07-30T05:40:54.438Z,3.10
2018-07-30T05:43:24.840Z,3.10
2018-07-30T05:45:56.141Z,3.60
2018-07-30T05:48:27.280Z,3.60
2018-07-30T05:50:58.013Z,3.60
2018-07-30T05:53:28.447Z,3.50
2018-07-30T05:55:58.914Z,3.50
2018-07-30T05:58:29.640Z,3.47
2018-07-30T06:00:59.783Z,3.30
2018-07-30T06:03:30.079Z,3.07
2018-07-30T06:06:00.471Z,3.07
2018-07-30T06:08:31.401Z,3.70
2018-07-30T06:11:02.168Z,3.13
2018-07-30T06:13:32.269Z,3.07
2018-07-30T06:16:03.884Z,3.17
2018-07-30T06:18:35.056Z,2.70
2018-07-30T06:21:05.814Z,3.57
2018-07-30T06:23:36.162Z,2.77
2018-07-30T06:26:06.484Z,3.00
2018-07-30T06:28:42.572Z,2.90
2018-07-30T06:31:13.556Z,3.00
2018-07-30T06:33:43.659Z,3.10
2018-07-30T06:36:14.478Z,3.40
2018-07-30T06:38:45.414Z,3.53
2018-07-30T06:41:15.954Z,2.90
2018-07-30T06:43:46.875Z,3.10
2018-07-30T06:46:17.322Z,2.70
2018-07-30T06:48:47.987Z,2.90
2018-07-30T06:51:18.784Z,3.10
2018-07-30T06:53:50.052Z,3.07
2018-07-30T06:56:20.487Z,2.47
2018-07-30T06:58:51.616Z,2.90
2018-07-30T07:01:23.256Z,3.03
2018-07-30T07:03:54.267Z,2.83
2018-07-30T07:06:25.778Z,2.97
2018-07-30T07:08:56.407Z,3.10
2018-07-30T07:11:27.164Z,2.70
2018-07-30T07:13:58.429Z,2.80
2018-07-30T07:16:30.736Z,2.87
2018-07-30T07:19:02.519Z,2.75
2018-07-30T07:21:33.818Z,2.77
2018-07-30T07:24:05.300Z,3.20
2018-07-30T07:26:36.632Z,3.00
2018-07-30T07:29:07.894Z,2.98
2018-07-30T07:31:39.232Z,3.15
2018-07-30T07:34:10.473Z,3.22
2018-07-30T07:36:42.028Z,3.02
2018-07-30T07:39:13.896Z,2.90
2018-07-30T07:41:45.802Z,2.77
2018-07-30T07:44:17.044Z,3.00
2018-07-30T07:46:48.625Z,3.12
2018-07-30T07:49:19.589Z,3.27
2018-07-30T07:51:51.669Z,3.20
2018-07-30T07:54:23.534Z,3.00
2018-07-30T07:56:56.264Z,3.20
2018-07-30T07:59:27.800Z,3.17
2018-07-30T08:01:59.039Z,2.98
2018-07-30T08:04:29.820Z,2.83
2018-07-30T08:07:01.013Z,2.70
2018-07-30T08:09:35.242Z,2.87
2018-07-30T08:12:06.660Z,2.97
2018-07-30T08:14:37.527Z,2.83
2018-07-30T08:17:08.739Z,3.43
2018-07-30T08:19:39.417Z,2.60
2018-07-30T08:22:10.319Z,2.50
2018-07-30T08:24:41.164Z,2.87
2018-07-30T08:27:12.419Z,2.83
2018-07-30T08:29:43.657Z,2.50
2018-07-30T08:32:14.900Z,3.17
2018-07-30T08:34:46.602Z,2.77
2018-07-30T08:37:18.345Z,2.47
2018-07-30T08:39:49.033Z,2.47
2018-07-30T08:42:20.561Z,2.77
2018-07-30T08:44:52.147Z,2.37
2018-07-30T08:47:23.534Z,2.60
2018-07-30T08:49:54.525Z,2.53
2018-07-30T08:52:25.489Z,2.53
2018-07-30T08:54:56.549Z,2.80
2018-07-30T08:57:27.787Z,2.57
2018-07-30T08:59:58.996Z,2.60
2018-07-30T09:02:30.344Z,2.40
2018-07-30T09:05:01.022Z,2.53
2018-07-30T09:07:32.283Z,2.20
2018-07-30T09:10:08.482Z,2.10
2018-07-30T09:12:39.981Z,2.63
2018-07-30T09:15:11.108Z,2.10
2018-07-30T09:17:41.826Z,2.40
2018-07-30T09:20:12.496Z,2.53
2018-07-30T09:22:43.810Z,2.30
2018-07-30T09:25:14.777Z,2.23
2018-07-30T09:27:45.760Z,2.00
2018-07-30T09:30:17.352Z,2.43
2018-07-30T09:32:48.736Z,2.30
2018-07-30T09:35:20.113Z,2.10
2018-07-30T09:37:51.436Z,2.23
2018-07-30T09:40:23.256Z,2.37
2018-07-30T09:42:54.336Z,2.33
2018-07-30T09:45:25.582Z,2.57
2018-07-30T09:47:56.545Z,2.40
2018-07-30T09:50:27.626Z,2.40
2018-07-30T09:52:58.875Z,2.00
2018-07-30T09:55:30.066Z,2.23
2018-07-30T09:58:01.013Z,2.30
2018-07-30T10:00:37.776Z,2.47
2018-07-30T10:03:08.480Z,1.90
2018-07-30T10:05:39.904Z,2.35
2018-07-30T10:08:11.203Z,2.12
2018-07-30T10:10:41.865Z,2.35
2018-07-30T10:13:13.474Z,2.08
2018-07-30T10:15:44.439Z,2.30
2018-07-30T10:18:15.964Z,2.25
2018-07-30T10:20:47.673Z,2.12
2018-07-30T10:23:19.568Z,2.25
2018-07-30T10:25:50.543Z,2.55
2018-07-30T10:28:21.824Z,2.50
2018-07-30T10:30:53.338Z,2.30
2018-07-30T10:33:24.836Z,2.27
2018-07-30T10:35:56.468Z,2.35
2018-07-30T10:38:27.777Z,2.40
2018-07-30T10:40:59.611Z,2.35
2018-07-30T10:43:31.056Z,2.87
2018-07-30T10:46:02.525Z,2.30
2018-07-30T10:48:33.512Z,2.40
2018-07-30T10:51:04.808Z,2.17
2018-07-30T10:53:36.367Z,2.33
2018-07-30T10:56:07.255Z,2.62
2018-07-30T10:58:38.124Z,2.50
2018-07-30T11:01:09.148Z,2.27
2018-07-30T11:03:39.972Z,2.12
2018-07-30T11:06:11.048Z,2.70
2018-07-30T11:08:41.854Z,2.30
2018-07-30T11:11:13.361Z,2.70
2018-07-30T11:13:45.001Z,2.30
2018-07-30T11:16:15.647Z,2.72
2018-07-30T11:18:46.253Z,2.60
2018-07-30T11:21:17.363Z,2.55
2018-07-30T11:23:48.298Z,2.25
2018-07-30T11:26:19.126Z,2.58
2018-07-30T11:28:50.149Z,2.65
2018-07-30T11:31:21.357Z,2.72
2018-07-30T11:33:52.592Z,2.52
2018-07-30T11:36:23.552Z,2.75
2018-07-30T11:38:54.800Z,2.50
2018-07-30T11:41:26.275Z,2.75
2018-07-30T11:43:57.835Z,2.67
2018-07-30T11:46:29.280Z,2.80
2018-07-30T11:49:00.525Z,2.50
2018-07-30T11:51:31.720Z,2.80
2018-07-30T11:54:03.097Z,2.70
2018-07-30T11:56:34.965Z,2.85
2018-07-30T11:59:06.933Z,3.20
2018-07-30T12:01:38.292Z,2.40
2018-07-30T12:04:10.207Z,3.00
2018-07-30T12:06:41.642Z,2.62
2018-07-30T12:09:13.444Z,2.72
2018-07-30T12:11:44.808Z,2.45
2018-07-30T12:14:16.023Z,2.20
2018-07-30T12:16:47.147Z,2.65
2018-07-30T12:19:19.984Z,2.50
2018-07-30T12:21:52.731Z,2.72
2018-07-30T12:24:24.297Z,2.27
2018-07-30T12:26:55.324Z,2.35
2018-07-30T12:29:27.364Z,2.40
2018-07-30T12:31:58.188Z,2.42
2018-07-30T12:34:29.153Z,2.65
2018-07-30T12:37:00.722Z,2.50
2018-07-30T12:39:34.720Z,2.12
2018-07-30T12:42:06.449Z,2.33
2018-07-30T12:44:38.966Z,2.25
2018-07-30T12:47:10.429Z,2.20
2018-07-30T12:49:42.550Z,2.22
2018-07-30T12:52:16.007Z,2.05
2018-07-30T12:54:50.907Z,2.02
2018-07-30T12:57:25.480Z,2.35
2018-07-30T13:00:01.877Z,2.05
2018-07-30T13:02:34.212Z,1.98
2018-07-30T13:05:08.460Z,2.25
2018-07-30T13:07:42.349Z,2.12
2018-07-30T13:10:13.645Z,2.45
2018-07-30T13:12:45.877Z,1.90
2018-07-30T13:15:17.385Z,2.00
2018-07-30T13:17:49.332Z,2.27
2018-07-30T13:20:27.582Z,2.08
2018-07-30T13:23:03.069Z,2.22
2018-07-30T13:25:37.653Z,2.20
2018-07-30T13:28:09.098Z,2.50
2018-07-30T13:30:40.764Z,2.25
2018-07-30T13:33:11.976Z,2.10
2018-07-30T13:35:42.995Z,1.82
2018-07-30T13:38:14.637Z,2.15
2018-07-30T13:40:45.928Z,2.30
2018-07-30T13:43:17.165Z,2.05
2018-07-30T13:45:48.092Z,1.70
2018-07-30T13:48:19.403Z,2.00
2018-07-30T13:50:50.724Z,2.05
2018-07-30T13:53:21.686Z,2.10
2018-07-30T13:55:53.604Z,1.92
2018-07-30T13:58:25.054Z,2.00
2018-07-30T14:00:56.287Z,2.05
2018-07-30T14:03:26.947Z,2.10
2018-07-30T14:05:58.471Z,2.20
2018-07-30T14:08:29.134Z,2.25
2018-07-30T14:11:00.585Z,2.00
2018-07-30T14:13:32.032Z,2.08
2018-07-30T14:16:03.036Z,2.08
2018-07-30T14:18:34.420Z,2.10
2018-07-30T14:21:06.220Z,1.95
2018-07-30T14:23:37.252Z,1.80
2018-07-30T14:26:08.500Z,2.20
2018-07-30T14:28:39.467Z,2.10
2018-07-30T14:31:10.732Z,2.20
2018-07-30T14:33:42.792Z,1.95
2018-07-30T14:36:14.023Z,2.25
2018-07-30T14:38:45.487Z,1.92
2018-07-30T14:41:16.816Z,2.10
2018-07-30T14:43:48.575Z,2.20
2018-07-30T14:46:19.721Z,1.98
2018-07-30T14:48:50.560Z,2.10
2018-07-30T14:51:21.574Z,1.87
2018-07-30T14:53:53.091Z,2.15
2018-07-30T14:56:24.372Z,1.98
2018-07-30T14:58:55.337Z,2.12
2018-07-30T15:01:26.910Z,1.90
2018-07-30T15:03:57.878Z,2.30
2018-07-30T15:06:29.111Z,1.70
2018-07-30T15:09:00.081Z,1.80
2018-07-30T15:11:31.089Z,1.82
2018-07-30T15:14:03.610Z,2.00
2018-07-30T15:16:34.956Z,1.67
2018-07-30T15:19:06.235Z,1.72
2018-07-30T15:21:37.556Z,1.70
2018-07-30T15:24:08.532Z,1.62
2018-07-30T15:26:39.552Z,1.50
2018-07-30T15:29:10.730Z,1.50
2018-07-30T15:31:42.048Z,1.72
2018-07-30T15:34:13.361Z,1.80
2018-07-30T15:36:44.499Z,1.50
2018-07-30T15:39:15.620Z,1.72
2018-07-30T15:41:46.644Z,1.90
2018-07-30T15:44:17.852Z,1.40
2018-07-30T15:46:49.550Z,1.30
2018-07-30T15:49:21.394Z,1.22
2018-07-30T15:51:52.868Z,1.55
2018-07-30T15:54:23.844Z,1.37
2018-07-30T15:56:55.484Z,1.90
2018-07-30T15:59:26.688Z,1.30
2018-07-30T16:01:57.757Z,1.70
2018-07-30T16:04:29.261Z,2.00
2018-07-30T16:07:00.544Z,2.15
2018-07-30T16:09:31.545Z,6.53
2018-07-30T16:12:02.849Z,5.25
2018-07-30T16:14:34.076Z,2.37
2018-07-30T16:17:05.267Z,3.33
2018-07-30T16:19:36.909Z,3.80
2018-07-30T16:22:08.204Z,2.70
2018-07-30T16:24:39.783Z,7.40
2018-07-30T16:27:10.727Z,4.85
2018-07-30T16:29:41.847Z,4.78
2018-07-30T16:32:13.620Z,3.75
2018-07-30T16:34:44.291Z,3.20
2018-07-30T16:37:15.496Z,4.00
2018-07-30T16:39:47.144Z,8.70
2018-07-30T16:42:18.287Z,12.05
2018-07-30T16:44:49.292Z,2.33
2018-07-30T16:47:20.169Z,2.22
2018-07-30T16:49:51.061Z,2.08
2018-07-30T16:52:22.112Z,1.70
2018-07-30T16:54:53.458Z,2.02
2018-07-30T16:57:24.611Z,1.87
2018-07-30T16:59:56.009Z,1.87
2018-07-30T17:02:27.017Z,1.60
2018-07-30T17:04:58.025Z,1.85
2018-07-30T17:07:29.339Z,1.87
2018-07-30T17:10:00.519Z,1.80
2018-07-30T17:12:31.735Z,1.90
2018-07-30T17:15:02.999Z,1.60
2018-07-30T17:17:34.276Z,1.60
2018-07-30T17:20:07.384Z,1.75
2018-07-30T17:22:39.712Z,1.77
2018-07-30T17:25:10.644Z,1.52
2018-07-30T17:27:41.776Z,1.70
2018-07-30T17:30:12.759Z,1.65
2018-07-30T17:32:43.816Z,1.87
2018-07-30T17:35:14.759Z,1.67
2018-07-30T17:37:45.924Z,2.15
2018-07-30T17:40:16.861Z,1.62
2018-07-30T17:42:48.166Z,1.60
2018-07-30T17:45:19.588Z,1.85
2018-07-30T17:47:51.049Z,2.00
2018-07-30T17:50:22.279Z,2.08
2018-07-30T17:52:53.268Z,1.82
2018-07-30T17:55:24.260Z,2.30
2018-07-30T17:57:55.473Z,1.70
2018-07-30T18:00:26.978Z,1.90
2018-07-30T18:02:57.911Z,1.90
2018-07-30T18:05:28.857Z,1.80
2018-07-30T18:07:59.463Z,1.98
2018-07-30T18:10:30.507Z,1.60
2018-07-30T18:13:02.221Z,1.95
2018-07-30T18:15:33.748Z,1.98
2018-07-30T18:18:05.481Z,1.98
2018-07-30T18:20:36.932Z,1.75
2018-07-30T18:23:08.090Z,2.15
2018-07-30T18:25:38.601Z,1.70
2018-07-30T18:28:10.215Z,1.85
2018-07-30T18:30:41.127Z,1.87
2018-07-30T18:33:12.156Z,1.70
2018-07-30T18:35:43.344Z,2.10
2018-07-30T18:38:14.464Z,1.87
2018-07-30T18:40:45.915Z,1.87
2018-07-30T18:43:16.688Z,1.80
2018-07-30T18:45:48.381Z,1.77
2018-07-30T18:48:19.841Z,1.70
2018-07-30T18:50:51.580Z,1.92
2018-07-30T18:53:23.117Z,2.10
2018-07-30T18:55:54.339Z,1.80
2018-07-30T18:58:25.156Z,2.20
2018-07-30T19:00:56.384Z,1.82
2018-07-30T19:03:28.092Z,1.82
2018-07-30T19:05:58.731Z,1.75
2018-07-30T19:08:29.760Z,1.77
2018-07-30T19:11:01.064Z,2.05
2018-07-30T19:13:32.900Z,2.20
2018-07-30T19:16:04.484Z,2.10
2018-07-30T19:18:35.857Z,1.90
2018-07-30T19:21:07.474Z,1.95
2018-07-30T19:23:38.664Z,2.05
2018-07-30T19:26:09.578Z,2.20
2018-07-30T19:28:40.641Z,1.87
2018-07-30T19:31:11.275Z,1.90
2018-07-30T19:33:41.996Z,2.00
2018-07-30T19:36:12.691Z,2.07
2018-07-30T19:38:43.669Z,1.83
2018-07-30T19:41:14.698Z,1.60
2018-07-30T19:43:45.647Z,2.10
2018-07-30T19:46:16.408Z,1.93
2018-07-30T19:48:47.052Z,1.90
2018-07-30T19:51:17.624Z,1.93
2018-07-30T19:53:48.100Z,1.90
2018-07-30T19:56:18.717Z,1.87
2018-07-30T19:58:49.757Z,2.03
2018-07-30T20:01:20.728Z,2.07
2018-07-30T20:03:51.752Z,1.83
2018-07-30T20:06:22.824Z,2.67
2018-07-30T20:08:53.519Z,2.17
2018-07-30T20:11:24.356Z,2.27
2018-07-30T20:13:55.000Z,2.50
2018-07-30T20:16:26.263Z,2.40
2018-07-30T20:18:57.239Z,2.40
2018-07-30T20:21:28.343Z,2.10
2018-07-30T20:23:59.352Z,2.20
2018-07-30T20:26:30.927Z,2.30
2018-07-30T20:29:01.337Z,2.30
2018-07-30T20:31:32.023Z,2.40
2018-07-30T20:34:02.750Z,2.30
2018-07-30T20:36:33.796Z,2.43
2018-07-30T20:39:06.312Z,2.10
2018-07-30T20:41:37.317Z,2.20
2018-07-30T20:44:07.647Z,2.50
2018-07-30T20:46:38.280Z,2.50
2018-07-30T20:49:09.031Z,2.30
2018-07-30T20:51:39.149Z,2.23
2018-07-30T20:54:09.439Z,2.07
2018-07-30T20:56:39.943Z,2.53
2018-07-30T20:59:10.695Z,2.10
2018-07-30T21:01:41.512Z,2.50
2018-07-30T21:04:12.262Z,1.90
2018-07-30T21:06:43.198Z,2.40
2018-07-30T21:09:13.932Z,2.27
2018-07-30T21:11:45.178Z,2.47
2018-07-30T21:14:15.903Z,2.50
2018-07-30T21:16:47.515Z,2.53
2018-07-30T21:19:17.724Z,2.63
2018-07-30T21:21:48.803Z,2.17
2018-07-30T21:24:19.535Z,2.20
2018-07-30T21:26:50.686Z,2.17
2018-07-30T21:29:21.088Z,2.40
2018-07-30T21:31:51.764Z,2.27
2018-07-30T21:34:22.179Z,2.43
2018-07-30T21:36:52.926Z,2.20
2018-07-30T21:39:24.386Z,2.33
2018-07-30T21:41:55.619Z,2.30
2018-07-30T21:44:26.743Z,2.43
2018-07-30T21:46:57.172Z,2.40
2018-07-30T21:49:27.881Z,2.40
2018-07-30T21:51:59.083Z,2.20
2018-07-30T21:54:29.483Z,2.53
2018-07-30T21:57:00.577Z,2.77
2018-07-30T21:59:30.973Z,2.30
2018-07-30T22:02:01.748Z,2.47
2018-07-30T22:04:32.372Z,2.30
2018-07-30T22:07:03.292Z,2.33
2018-07-30T22:09:34.426Z,2.53
2018-07-30T22:12:05.562Z,2.23
2018-07-30T22:14:36.299Z,2.10
2018-07-30T22:17:07.676Z,2.13
2018-07-30T22:19:38.371Z,2.43
2018-07-30T22:22:09.078Z,2.20
2018-07-30T22:24:39.650Z,2.37
2018-07-30T22:27:10.134Z,2.50
2018-07-30T22:29:40.592Z,2.33
2018-07-30T22:32:11.202Z,2.40
2018-07-30T22:34:41.926Z,2.60
2018-07-30T22:37:12.851Z,2.17
2018-07-30T22:39:43.199Z,2.30
2018-07-30T22:42:13.568Z,2.50
2018-07-30T22:44:43.928Z,2.60
2018-07-30T22:47:14.611Z,2.50
2018-07-30T22:49:45.535Z,2.60
2018-07-30T22:52:16.180Z,2.30
2018-07-30T22:54:46.532Z,2.27
2018-07-30T22:57:17.991Z,2.33
2018-07-30T22:59:49.031Z,2.40
2018-07-30T23:02:19.729Z,2.23
2018-07-30T23:04:51.215Z,2.57
2018-07-30T23:07:21.590Z,2.27
2018-07-30T23:09:52.475Z,2.47
2018-07-30T23:12:23.103Z,2.80
2018-07-30T23:14:53.779Z,2.20
2018-07-30T23:17:24.140Z,2.60
2018-07-30T23:19:54.620Z,2.33
2018-07-30T23:22:25.211Z,2.47
2018-07-30T23:24:55.843Z,2.60
2018-07-30T23:27:26.552Z,2.67
2018-07-30T23:29:57.067Z,2.43
2018-07-30T23:32:28.008Z,2.50
2018-07-30T23:34:58.875Z,2.23
2018-07-30T23:37:29.572Z,2.60
2018-07-30T23:40:00.752Z,2.40
2018-07-30T23:42:31.153Z,2.50
2018-07-30T23:45:01.500Z,2.30
2018-07-30T23:47:32.439Z,2.30
2018-07-30T23:50:03.113Z,2.20
2018-07-30T23:52:34.477Z,2.23
2018-07-30T23:55:05.225Z,2.30
2018-07-30T23:57:35.984Z,2.20
